createdAt,value
2023-08-20T00:00:08.564Z,6.57
2023-08-20T00:02:38.176Z,6.70
2023-08-20T00:05:05.477Z,6.80
2023-08-20T00:07:33.148Z,6.63
2023-08-20T00:10:00.294Z,6.45
2023-08-20T00:12:27.210Z,7.05
2023-08-20T00:15:04.076Z,7.68
2023-08-20T00:17:38.443Z,7.05
2023-08-20T00:20:09.870Z,7.45
2023-08-20T00:22:37.387Z,7.13
2023-08-20T00:25:04.587Z,7.75
2023-08-20T00:27:31.431Z,7.00
2023-08-20T00:30:07.214Z,7.38
2023-08-20T00:32:35.276Z,7.63
2023-08-20T00:35:05.956Z,7.90
2023-08-20T00:37:33.139Z,7.88
2023-08-20T00:40:00.614Z,7.43
2023-08-20T00:42:27.515Z,7.45
2023-08-20T00:44:57.391Z,7.45
2023-08-20T00:47:24.264Z,7.30
2023-08-20T00:49:52.047Z,7.53
2023-08-20T00:52:19.103Z,7.32
2023-08-20T00:54:46.899Z,7.72
2023-08-20T00:57:15.447Z,7.63
2023-08-20T00:59:46.628Z,6.63
2023-08-20T01:02:17.189Z,7.90
2023-08-20T01:04:44.038Z,7.63
2023-08-20T01:07:25.497Z,7.18
2023-08-20T01:10:05.310Z,7.68
2023-08-20T01:12:32.991Z,7.03
2023-08-20T01:14:59.819Z,7.28
2023-08-20T01:17:26.634Z,7.45
2023-08-20T01:19:53.620Z,7.40
2023-08-20T01:22:32.451Z,7.60
2023-08-20T01:25:19.342Z,7.10
2023-08-20T01:27:49.209Z,7.18
2023-08-20T01:30:19.679Z,7.40
2023-08-20T01:32:47.452Z,6.80
2023-08-20T01:35:21.061Z,7.30
2023-08-20T01:37:47.809Z,7.15
2023-08-20T01:40:23.887Z,7.15
2023-08-20T01:42:50.679Z,6.68
2023-08-20T01:45:17.688Z,7.60
2023-08-20T01:47:46.935Z,7.68
2023-08-20T01:50:14.650Z,7.03
2023-08-20T01:52:46.939Z,7.30
2023-08-20T01:55:13.742Z,7.78
2023-08-20T01:57:40.533Z,7.15
2023-08-20T02:00:13.903Z,7.13
2023-08-20T02:02:40.822Z,7.20
2023-08-20T02:05:08.069Z,7.25
2023-08-20T02:07:35.095Z,6.97
2023-08-20T02:10:02.098Z,7.05
2023-08-20T02:12:28.874Z,7.20
2023-08-20T02:15:00.983Z,6.60
2023-08-20T02:17:27.772Z,7.25
2023-08-20T02:19:54.467Z,7.10
2023-08-20T02:22:21.215Z,6.85
2023-08-20T02:24:48.137Z,6.93
2023-08-20T02:27:14.984Z,6.80
2023-08-20T02:29:41.872Z,6.47
2023-08-20T02:32:08.632Z,7.05
2023-08-20T02:34:35.362Z,7.20
2023-08-20T02:37:02.120Z,7.20
2023-08-20T02:39:34.772Z,7.13
2023-08-20T02:42:05.315Z,7.00
2023-08-20T02:44:32.120Z,7.00
2023-08-20T02:46:58.975Z,7.07
2023-08-20T02:49:25.764Z,7.60
2023-08-20T02:51:52.534Z,7.07
2023-08-20T02:54:19.260Z,7.30
2023-08-20T02:56:45.990Z,7.13
2023-08-20T02:59:12.736Z,7.25
2023-08-20T03:01:39.477Z,6.88
2023-08-20T03:04:06.652Z,7.63
2023-08-20T03:06:33.354Z,7.13
2023-08-20T03:09:05.924Z,7.45
2023-08-20T03:11:32.732Z,7.63
2023-08-20T03:14:07.192Z,7.45
2023-08-20T03:16:37.434Z,7.82
2023-08-20T03:19:05.201Z,7.50
2023-08-20T03:21:33.676Z,7.70
2023-08-20T03:24:00.426Z,7.70
2023-08-20T03:26:27.243Z,7.63
2023-08-20T03:28:54.004Z,8.10
2023-08-20T03:31:20.978Z,7.90
2023-08-20T03:33:47.786Z,7.72
2023-08-20T03:36:14.611Z,7.43
2023-08-20T03:38:41.455Z,7.47
2023-08-20T03:41:08.214Z,7.93
2023-08-20T03:43:34.993Z,7.32
2023-08-20T03:46:09.841Z,8.27
2023-08-20T03:48:36.657Z,8.13
2023-08-20T03:51:03.452Z,9.35
2023-08-20T03:53:30.394Z,8.43
2023-08-20T03:55:57.152Z,9.10
2023-08-20T03:58:23.882Z,8.45
2023-08-20T04:00:50.597Z,9.40
2023-08-20T04:03:17.358Z,9.70
2023-08-20T04:05:44.089Z,9.35
2023-08-20T04:08:12.373Z,9.77
2023-08-20T04:10:45.508Z,9.90
2023-08-20T04:13:12.350Z,9.60
2023-08-20T04:15:39.188Z,9.20
2023-08-20T04:18:12.929Z,9.35
2023-08-20T04:20:39.799Z,9.73
2023-08-20T04:23:06.754Z,9.32
2023-08-20T04:25:37.382Z,10.07
2023-08-20T04:28:04.337Z,10.10
2023-08-20T04:30:31.282Z,9.43
2023-08-20T04:32:58.863Z,9.30
2023-08-20T04:35:25.649Z,10.35
2023-08-20T04:37:52.398Z,8.88
2023-08-20T04:40:19.326Z,9.07
2023-08-20T04:42:46.167Z,9.65
2023-08-20T04:45:13.173Z,10.05
2023-08-20T04:47:41.653Z,9.77
2023-08-20T04:50:08.845Z,9.20
2023-08-20T04:52:35.888Z,9.38
2023-08-20T04:55:06.658Z,8.93
2023-08-20T05:00:01.481Z,9.23
2023-08-20T05:02:33.028Z,9.40
2023-08-20T05:05:01.158Z,8.90
2023-08-20T05:07:28.025Z,8.95
2023-08-20T05:09:57.037Z,9.27
2023-08-20T05:12:23.836Z,9.63
2023-08-20T05:14:50.610Z,9.40
2023-08-20T05:17:20.485Z,9.55
2023-08-20T05:19:48.260Z,8.95
2023-08-20T05:22:15.066Z,8.73
2023-08-20T05:24:41.827Z,9.50
2023-08-20T05:27:15.448Z,9.70
2023-08-20T05:29:52.047Z,9.77
2023-08-20T05:32:19.346Z,10.05
2023-08-20T05:34:46.093Z,9.82
2023-08-20T05:37:12.833Z,9.40
2023-08-20T05:39:46.778Z,9.93
2023-08-20T05:42:13.828Z,9.45
2023-08-20T05:44:43.379Z,9.25
2023-08-20T05:47:11.057Z,8.38
2023-08-20T05:49:47.184Z,8.18
2023-08-20T05:52:17.597Z,7.55
2023-08-20T05:54:52.352Z,7.35
2023-08-20T05:57:19.664Z,7.53
2023-08-20T05:59:48.044Z,7.18
2023-08-20T06:02:20.644Z,7.43
2023-08-20T06:04:52.154Z,7.25
2023-08-20T06:07:18.962Z,7.50
2023-08-20T06:09:45.741Z,7.40
2023-08-20T06:12:22.512Z,7.47
2023-08-20T06:14:49.372Z,7.10
2023-08-20T06:17:16.479Z,6.57
2023-08-20T06:19:51.656Z,6.75
2023-08-20T06:22:18.392Z,6.30
2023-08-20T06:24:45.113Z,6.75
2023-08-20T06:27:11.877Z,6.07
2023-08-20T06:29:38.611Z,6.20
2023-08-20T06:32:05.776Z,6.28
2023-08-20T06:34:35.346Z,5.90
2023-08-20T06:37:06.187Z,6.17
2023-08-20T06:39:33.035Z,5.70
2023-08-20T06:41:59.876Z,5.80
2023-08-20T06:44:26.626Z,5.90
2023-08-20T06:46:58.289Z,5.35
2023-08-20T06:49:25.201Z,5.75
2023-08-20T06:51:51.938Z,5.88
2023-08-20T06:54:21.713Z,5.65
2023-08-20T06:56:52.132Z,5.40
2023-08-20T06:59:20.778Z,5.65
2023-08-20T07:01:47.528Z,5.97
2023-08-20T07:04:21.559Z,5.55
2023-08-20T07:06:48.280Z,5.50
2023-08-20T07:09:17.676Z,5.75
2023-08-20T07:11:50.231Z,5.65
2023-08-20T07:14:17.014Z,5.32
2023-08-20T07:16:51.788Z,5.72
2023-08-20T07:19:22.556Z,5.68
2023-08-20T07:21:54.987Z,5.60
2023-08-20T07:24:22.434Z,5.93
2023-08-20T07:26:49.286Z,5.88
2023-08-20T07:29:26.627Z,6.25
2023-08-20T07:31:53.618Z,5.60
2023-08-20T07:34:20.448Z,5.65
2023-08-20T07:36:53.751Z,5.82
2023-08-20T07:39:21.043Z,5.50
2023-08-20T07:41:47.830Z,5.72
2023-08-20T07:44:14.611Z,5.50
2023-08-20T07:46:41.345Z,5.93
2023-08-20T07:49:13.501Z,6.07
2023-08-20T07:51:40.264Z,5.75
2023-08-20T07:54:06.979Z,6.13
2023-08-20T07:56:41.357Z,6.70
2023-08-20T07:59:11.672Z,6.72
2023-08-20T08:01:38.664Z,6.47
2023-08-20T08:04:05.587Z,5.90
2023-08-20T08:06:34.964Z,6.30
2023-08-20T08:09:23.271Z,6.20
2023-08-20T08:11:50.309Z,6.18
2023-08-20T08:14:17.246Z,6.85
2023-08-20T08:16:44.329Z,7.25
2023-08-20T08:19:14.483Z,6.07
2023-08-20T08:21:43.020Z,6.83
2023-08-20T08:24:10.040Z,6.13
2023-08-20T08:26:42.679Z,7.13
2023-08-20T08:29:13.752Z,5.90
2023-08-20T08:34:09.638Z,6.97
2023-08-20T08:36:38.154Z,6.47
2023-08-20T08:39:05.774Z,6.57
2023-08-20T08:41:36.665Z,6.82
2023-08-20T08:44:08.418Z,7.05
2023-08-20T08:46:36.714Z,6.53
2023-08-20T08:49:04.189Z,5.57
2023-08-20T08:51:32.942Z,6.07
2023-08-20T08:54:03.200Z,6.78
2023-08-20T08:56:29.979Z,6.53
2023-08-20T08:59:00.776Z,7.35
2023-08-20T09:01:27.615Z,7.35
2023-08-20T09:03:57.873Z,6.40
2023-08-20T09:06:24.675Z,6.10
2023-08-20T09:09:04.575Z,6.30
2023-08-20T09:11:44.131Z,6.57
2023-08-20T09:14:28.679Z,6.53
2023-08-20T09:16:57.026Z,8.20
2023-08-20T09:19:23.960Z,8.20
2023-08-20T09:21:50.733Z,7.80
2023-08-20T09:24:17.461Z,7.07
2023-08-20T09:26:47.195Z,7.40
2023-08-20T09:29:14.129Z,6.47
2023-08-20T09:31:41.203Z,8.30
2023-08-20T09:34:22.260Z,6.40
2023-08-20T09:36:49.933Z,8.07
2023-08-20T09:39:19.049Z,7.03
2023-08-20T09:41:49.158Z,7.10
2023-08-20T09:44:24.146Z,6.90
2023-08-20T09:46:52.564Z,8.18
2023-08-20T09:49:24.053Z,7.50
2023-08-20T09:51:55.107Z,6.78
2023-08-20T09:57:03.849Z,6.28
2023-08-20T09:59:31.112Z,6.70
2023-08-20T10:01:58.455Z,6.55
2023-08-20T10:04:27.641Z,6.93
2023-08-20T10:06:54.891Z,7.20
2023-08-20T10:09:22.647Z,7.90
2023-08-20T10:11:49.810Z,6.55
2023-08-20T10:14:22.802Z,7.20
2023-08-20T10:16:49.696Z,7.47
2023-08-20T10:19:17.713Z,7.70
2023-08-20T10:21:47.582Z,7.25
2023-08-20T10:24:24.950Z,8.35
2023-08-20T10:27:11.720Z,8.23
2023-08-20T10:29:42.318Z,8.05
2023-08-20T10:32:21.643Z,7.82
2023-08-20T10:34:52.726Z,8.07
2023-08-20T10:39:57.411Z,6.88
2023-08-20T10:42:27.977Z,6.75
2023-08-20T10:44:59.380Z,7.03
2023-08-20T10:47:49.231Z,6.88
2023-08-20T10:50:25.676Z,7.68
2023-08-20T10:52:56.910Z,7.30
2023-08-20T10:55:28.159Z,7.60
2023-08-20T10:57:58.943Z,7.03
2023-08-20T11:00:28.603Z,7.40
2023-08-20T11:02:57.105Z,7.13
2023-08-20T11:05:24.720Z,7.22
2023-08-20T11:07:54.355Z,7.53
2023-08-20T11:10:22.693Z,7.63
2023-08-20T11:12:49.515Z,6.90
2023-08-20T11:15:16.300Z,7.15
2023-08-20T11:17:44.684Z,7.60
2023-08-20T11:20:15.214Z,7.45
2023-08-20T11:22:42.326Z,7.65
2023-08-20T11:25:13.232Z,7.22
2023-08-20T11:27:43.876Z,7.75
2023-08-20T11:30:11.660Z,7.40
2023-08-20T11:32:39.979Z,7.38
2023-08-20T11:35:14.256Z,7.55
2023-08-20T11:37:42.002Z,7.10
2023-08-20T11:40:09.602Z,8.05
2023-08-20T11:42:36.718Z,7.65
2023-08-20T11:45:03.755Z,7.72
2023-08-20T11:47:30.646Z,8.20
2023-08-20T11:50:05.572Z,7.57
2023-08-20T11:52:36.991Z,9.18
2023-08-20T11:55:06.966Z,8.65
2023-08-20T11:57:34.870Z,7.25
2023-08-20T12:00:06.825Z,7.57
2023-08-20T12:02:40.727Z,7.18
2023-08-20T12:05:08.204Z,8.10
2023-08-20T12:07:35.397Z,6.90
2023-08-20T12:10:25.819Z,7.07
2023-08-20T12:12:56.387Z,7.20
2023-08-20T12:15:24.005Z,7.20
2023-08-20T12:18:04.954Z,7.50
2023-08-20T12:20:34.447Z,6.85
2023-08-20T12:23:04.207Z,7.85
2023-08-20T12:25:32.858Z,7.30
2023-08-20T12:27:59.627Z,7.50
2023-08-20T12:30:26.426Z,7.30
2023-08-20T12:32:53.220Z,7.45
2023-08-20T12:35:23.003Z,6.90
2023-08-20T12:37:50.438Z,7.30
2023-08-20T12:40:32.420Z,6.65
2023-08-20T12:43:00.966Z,7.25
2023-08-20T12:45:27.766Z,6.50
2023-08-20T12:47:54.498Z,7.28
2023-08-20T12:50:24.464Z,7.20
2023-08-20T12:52:52.434Z,6.50
2023-08-20T12:55:20.027Z,7.38
2023-08-20T12:58:01.240Z,7.10
2023-08-20T13:02:58.578Z,7.40
2023-08-20T13:05:26.465Z,6.63
2023-08-20T13:07:54.501Z,6.65
2023-08-20T13:10:22.109Z,6.70
2023-08-20T13:12:57.637Z,6.50
2023-08-20T13:15:26.637Z,6.38
2023-08-20T13:17:57.113Z,6.63
2023-08-20T13:20:23.838Z,6.78
2023-08-20T13:22:56.391Z,5.95
2023-08-20T13:25:23.193Z,6.28
2023-08-20T13:27:50.091Z,6.70
2023-08-20T13:30:17.382Z,5.93
2023-08-20T13:32:44.164Z,7.03
2023-08-20T13:35:10.879Z,5.93
2023-08-20T13:37:37.598Z,6.00
2023-08-20T13:40:06.845Z,6.40
2023-08-20T13:42:33.879Z,6.38
2023-08-20T13:45:00.971Z,5.93
2023-08-20T13:47:30.664Z,6.32
2023-08-20T13:49:58.061Z,5.85
2023-08-20T13:52:24.829Z,5.90
2023-08-20T13:54:51.806Z,6.32
2023-08-20T13:57:18.596Z,6.40
2023-08-20T13:59:47.376Z,6.30
2023-08-20T14:02:14.118Z,6.18
2023-08-20T14:04:47.231Z,6.03
2023-08-20T14:07:16.065Z,5.65
2023-08-20T14:09:42.850Z,6.03
2023-08-20T14:12:10.037Z,5.90
2023-08-20T14:14:39.037Z,5.85
2023-08-20T14:17:06.675Z,6.15
2023-08-20T14:19:34.152Z,6.55
2023-08-20T14:22:05.108Z,6.15
2023-08-20T14:24:31.798Z,6.28
2023-08-20T14:26:58.734Z,5.53
2023-08-20T14:29:27.871Z,5.95
2023-08-20T14:31:55.466Z,5.50
2023-08-20T14:34:22.211Z,5.78
2023-08-20T14:36:49.160Z,6.30
2023-08-20T14:39:17.882Z,6.43
2023-08-20T14:41:44.625Z,5.43
2023-08-20T14:44:11.711Z,6.00
2023-08-20T14:46:38.443Z,5.85
2023-08-20T14:49:08.583Z,5.70
2023-08-20T14:51:35.647Z,5.75
2023-08-20T14:54:04.742Z,5.88
2023-08-20T14:56:31.519Z,5.85
2023-08-20T14:59:00.776Z,5.50
2023-08-20T15:01:30.649Z,5.70
2023-08-20T15:03:58.468Z,5.47
2023-08-20T15:06:27.620Z,5.25
2023-08-20T15:09:05.364Z,5.38
2023-08-20T15:11:33.125Z,5.22
2023-08-20T15:13:59.854Z,5.30
2023-08-20T15:16:26.592Z,5.13
2023-08-20T15:19:02.890Z,5.30
2023-08-20T15:21:36.881Z,5.00
2023-08-20T15:24:20.969Z,5.40
2023-08-20T15:26:47.820Z,5.50
2023-08-20T15:29:17.610Z,5.45
2023-08-20T15:31:47.499Z,5.22
2023-08-20T15:34:15.181Z,5.30
2023-08-20T15:36:52.815Z,5.40
2023-08-20T15:39:23.257Z,5.38
2023-08-20T15:41:55.475Z,5.65
2023-08-20T15:44:26.012Z,5.85
2023-08-20T15:46:55.917Z,5.55
2023-08-20T15:49:22.714Z,5.63
2023-08-20T15:51:49.459Z,5.30
2023-08-20T15:54:16.254Z,5.40
2023-08-20T15:56:42.996Z,5.90
2023-08-20T15:59:15.453Z,5.80
2023-08-20T16:01:43.140Z,5.30
2023-08-20T16:04:09.882Z,5.57
2023-08-20T16:06:36.599Z,5.70
2023-08-20T16:09:03.844Z,5.60
2023-08-20T16:11:32.969Z,5.13
2023-08-20T16:13:59.854Z,5.55
2023-08-20T16:16:26.728Z,5.80
2023-08-20T16:18:53.567Z,5.10
2023-08-20T16:21:20.345Z,5.50
2023-08-20T16:23:49.925Z,5.20
2023-08-20T16:26:16.732Z,5.22
2023-08-20T16:28:43.509Z,5.28
2023-08-20T16:31:10.371Z,5.20
2023-08-20T16:33:46.216Z,5.97
2023-08-20T16:36:13.773Z,5.40
2023-08-20T16:38:40.487Z,5.82
2023-08-20T16:41:07.259Z,5.30
2023-08-20T16:43:33.997Z,5.30
2023-08-20T16:46:02.421Z,5.15
2023-08-20T16:48:34.459Z,5.47
2023-08-20T16:51:04.438Z,5.25
2023-08-20T16:53:31.171Z,5.60
2023-08-20T16:55:57.894Z,5.22
2023-08-20T16:58:25.267Z,5.28
2023-08-20T17:00:52.013Z,5.45
2023-08-20T17:03:18.855Z,5.30
2023-08-20T17:05:45.671Z,5.50
2023-08-20T17:08:12.462Z,5.50
2023-08-20T17:10:39.285Z,5.30
2023-08-20T17:13:06.549Z,5.32
2023-08-20T17:15:33.959Z,5.20
2023-08-20T17:18:01.091Z,5.40
2023-08-20T17:20:27.862Z,5.35
2023-08-20T17:22:54.651Z,5.35
2023-08-20T17:25:24.803Z,5.07
2023-08-20T17:27:51.517Z,5.13
2023-08-20T17:30:18.254Z,5.50
2023-08-20T17:32:51.723Z,5.20
2023-08-20T17:35:19.110Z,5.28
2023-08-20T17:37:45.828Z,5.63
2023-08-20T17:40:21.728Z,5.40
2023-08-20T17:42:49.396Z,5.40
2023-08-20T17:47:56.750Z,5.43
2023-08-20T17:50:23.518Z,5.60
2023-08-20T17:52:50.346Z,5.70
2023-08-20T17:55:17.217Z,5.80
2023-08-20T17:57:43.892Z,5.68
2023-08-20T18:00:11.111Z,5.97
2023-08-20T18:02:38.196Z,6.05
2023-08-20T18:05:07.734Z,5.70
2023-08-20T18:07:36.020Z,6.10
2023-08-20T18:10:03.421Z,5.72
2023-08-20T18:12:30.301Z,6.15
2023-08-20T18:14:57.065Z,6.00
2023-08-20T18:17:24.009Z,6.25
2023-08-20T18:19:51.635Z,6.60
2023-08-20T18:22:18.442Z,5.72
2023-08-20T18:24:47.975Z,6.30
2023-08-20T18:27:14.722Z,6.40
2023-08-20T18:29:43.405Z,6.05
2023-08-20T18:32:10.138Z,6.13
2023-08-20T18:34:42.816Z,6.00
2023-08-20T18:37:18.730Z,6.40
2023-08-20T18:39:46.096Z,6.55
2023-08-20T18:42:12.897Z,6.05
2023-08-20T18:44:39.893Z,6.22
2023-08-20T18:47:11.018Z,6.18
2023-08-20T18:49:37.915Z,6.70
2023-08-20T18:52:05.364Z,6.18
2023-08-20T18:54:34.334Z,6.32
2023-08-20T18:57:01.066Z,6.20
2023-08-20T18:59:30.162Z,6.15
2023-08-20T19:01:57.972Z,6.20
2023-08-20T19:04:24.814Z,6.57
2023-08-20T19:06:52.353Z,6.60
2023-08-20T19:09:19.164Z,6.45
2023-08-20T19:11:48.230Z,6.60
2023-08-20T19:14:16.377Z,6.50
2023-08-20T19:16:43.223Z,7.00
2023-08-20T19:19:14.579Z,6.28
2023-08-20T19:21:41.564Z,6.53
2023-08-20T19:24:08.531Z,6.65
2023-08-20T19:26:35.664Z,6.70
2023-08-20T19:29:05.537Z,6.38
2023-08-20T19:31:33.143Z,7.00
2023-08-20T19:34:02.605Z,6.70
2023-08-20T19:36:29.400Z,6.60
2023-08-20T19:38:56.158Z,6.70
2023-08-20T19:41:25.877Z,6.35
2023-08-20T19:43:53.852Z,6.50
2023-08-20T19:46:25.491Z,6.35
2023-08-20T19:48:53.543Z,6.45
2023-08-20T19:51:20.278Z,6.70
2023-08-20T19:53:49.933Z,6.35
2023-08-20T19:56:16.741Z,6.43
2023-08-20T19:58:44.145Z,6.72
2023-08-20T20:01:10.992Z,6.90
2023-08-20T20:03:37.890Z,7.72
2023-08-20T20:06:04.602Z,7.47
2023-08-20T20:08:31.424Z,7.47
2023-08-20T20:10:58.227Z,7.50
2023-08-20T20:13:25.055Z,7.07
2023-08-20T20:15:53.532Z,7.18
2023-08-20T20:18:25.588Z,7.00
2023-08-20T20:20:52.748Z,7.78
2023-08-20T20:23:25.474Z,7.78
2023-08-20T20:25:52.304Z,7.20
2023-08-20T20:28:23.749Z,7.75
2023-08-20T20:30:55.202Z,7.05
2023-08-20T20:33:21.999Z,7.63
2023-08-20T20:35:55.356Z,7.50
2023-08-20T20:38:26.356Z,7.68
2023-08-20T20:40:53.101Z,6.90
2023-08-20T20:43:20.160Z,7.20
2023-08-20T20:45:50.646Z,7.18
2023-08-20T20:48:22.742Z,7.03
2023-08-20T20:50:49.970Z,7.03
2023-08-20T20:53:18.148Z,7.70
2023-08-20T20:55:48.220Z,7.47
2023-08-20T20:58:15.174Z,8.55
2023-08-20T21:00:43.987Z,7.93
2023-08-20T21:03:13.771Z,8.32
2023-08-20T21:05:43.598Z,9.18
2023-08-20T21:08:11.516Z,7.90
2023-08-20T21:10:43.743Z,8.27
2023-08-20T21:13:10.600Z,8.20
2023-08-20T21:15:37.623Z,8.32
2023-08-20T21:18:04.757Z,8.07
2023-08-20T21:20:39.719Z,8.00
2023-08-20T21:23:07.456Z,7.82
2023-08-20T21:25:35.646Z,7.85
2023-08-20T21:28:04.592Z,7.75
2023-08-20T21:30:31.406Z,7.78
2023-08-20T21:32:58.282Z,7.25
2023-08-20T21:35:25.131Z,7.00
2023-08-20T21:37:51.920Z,7.55
2023-08-20T21:40:18.966Z,7.75
2023-08-20T21:42:45.697Z,7.45
2023-08-20T21:45:12.768Z,7.38
2023-08-20T21:47:40.828Z,7.55
2023-08-20T21:50:07.981Z,7.53
2023-08-20T21:52:34.963Z,7.10
2023-08-20T21:55:01.836Z,7.35
2023-08-20T21:57:28.701Z,7.22
2023-08-20T21:59:56.438Z,7.65
2023-08-20T22:02:23.266Z,8.00
2023-08-20T22:04:50.119Z,7.63
2023-08-20T22:07:19.204Z,7.88
2023-08-20T22:09:46.012Z,8.25
2023-08-20T22:12:15.144Z,7.80
2023-08-20T22:14:41.965Z,7.80
2023-08-20T22:17:08.796Z,8.10
2023-08-20T22:19:43.616Z,7.90
2023-08-20T22:22:14.304Z,7.85
2023-08-20T22:24:41.115Z,7.82
2023-08-20T22:27:10.358Z,7.68
2023-08-20T22:29:37.481Z,7.35
2023-08-20T22:32:04.461Z,7.90
2023-08-20T22:34:31.185Z,8.20
2023-08-20T22:37:00.807Z,7.80
2023-08-20T22:39:27.567Z,7.05
2023-08-20T22:41:57.654Z,7.45
2023-08-20T22:44:24.374Z,8.20
2023-08-20T22:46:51.139Z,7.55
2023-08-20T22:49:17.899Z,7.35
2023-08-20T22:51:52.090Z,7.85
2023-08-20T22:54:18.948Z,7.60
2023-08-20T22:56:45.733Z,7.65
2023-08-20T22:59:13.429Z,7.65
2023-08-20T23:01:45.574Z,6.90
2023-08-20T23:04:13.657Z,6.97
2023-08-20T23:06:41.479Z,7.22
2023-08-20T23:09:08.812Z,7.70
2023-08-20T23:11:38.970Z,7.60
2023-08-20T23:14:06.353Z,7.63
2023-08-20T23:16:33.093Z,7.90
2023-08-20T23:19:00.088Z,7.50
2023-08-20T23:21:37.736Z,7.38
2023-08-20T23:24:06.666Z,8.07
2023-08-20T23:26:36.265Z,8.38
2023-08-20T23:29:06.018Z,7.88
2023-08-20T23:31:33.505Z,7.93
2023-08-20T23:34:00.208Z,8.02
2023-08-20T23:36:27.319Z,8.10
2023-08-20T23:38:54.070Z,7.70
2023-08-20T23:41:23.335Z,7.53
2023-08-20T23:43:50.061Z,8.13
2023-08-20T23:46:16.874Z,7.85
2023-08-20T23:48:43.607Z,8.00
2023-08-20T23:51:12.904Z,7.95
2023-08-20T23:53:39.816Z,8.57
2023-08-20T23:56:06.561Z,8.48
2023-08-20T23:58:35.855Z,8.07
